Time;durP1;ratioP1;P1;durP2;ratioP2;P2;SDS_P1;SDS_P2;PMS_P1;PMS_P2;Temp;Humidity;BMP_temperature;BMP_pressure;BME280_temperature;BME280_humidity;BME280_pressure;Samples;Min_cycle;Max_cycle;Signal;HPM_P1;HPM_P2
2024/01/06 00:00:56;;;;;;;0.90;0.90;;;22.40;57.40;;;;;;5052603;28;20442;-63
2024/01/06 00:03:25;;;;;;;1.00;1.00;;;22.40;57.40;;;;;;5050819;28;20515;-64
2024/01/06 00:05:53;;;;;;;1.40;1.30;;;22.40;57.40;;;;;;5040835;28;20478;-63
2024/01/06 00:08:22;;;;;;;4.50;1.10;;;22.40;57.40;;;;;;5080637;28;20470;-63
2024/01/06 00:10:50;;;;;;;0.90;0.90;;;22.40;57.40;;;;;;5050743;28;21271;-63
2024/01/06 00:13:19;;;;;;;1.57;1.47;;;22.40;57.40;;;;;;5061699;28;20443;-63
2024/01/06 00:15:48;;;;;;;1.63;1.53;;;22.40;57.40;;;;;;5058932;28;20485;-63
2024/01/06 00:18:16;;;;;;;1.07;0.97;;;22.40;57.40;;;;;;5060526;28;20459;-63
2024/01/06 00:20:44;;;;;;;0.90;0.90;;;22.40;57.40;;;;;;5059262;28;20434;-64
2024/01/06 00:23:12;;;;;;;1.27;1.17;;;22.40;57.40;;;;;;5057967;28;20571;-64
2024/01/06 00:25:41;;;;;;;0.90;0.80;;;22.40;57.40;;;;;;5062850;28;20850;-67
2024/01/06 00:28:09;;;;;;;0.90;0.90;;;22.40;57.40;;;;;;5062050;28;20935;-63
2024/01/06 00:30:39;;;;;;;2.60;1.23;;;22.30;57.40;;;;;;5061822;28;20792;-63
2024/01/06 00:33:07;;;;;;;1.20;1.10;;;22.40;57.40;;;;;;5060839;28;20548;-64
2024/01/06 00:35:35;;;;;;;0.90;0.90;;;22.30;57.40;;;;;;5063654;28;20479;-62
2024/01/06 00:38:04;;;;;;;1.20;1.10;;;22.30;57.40;;;;;;5060907;28;20437;-62
2024/01/06 00:40:32;;;;;;;1.33;0.97;;;22.30;57.40;;;;;;5047279;28;20483;-61
2024/01/06 00:43:01;;;;;;;1.27;1.23;;;22.30;57.40;;;;;;5047111;28;20511;-62
2024/01/06 00:45:32;;;;;;;1.43;1.23;;;22.30;57.40;;;;;;5059879;28;20490;-62
2024/01/06 00:48:02;;;;;;;1.10;1.10;;;22.30;57.40;;;;;;5060168;28;20509;-63
2024/01/06 00:50:30;;;;;;;1.10;1.10;;;22.30;57.40;;;;;;5051824;28;20454;-65
2024/01/06 00:52:58;;;;;;;0.90;0.90;;;22.30;57.40;;;;;;5062705;28;20447;-62
2024/01/06 00:55:27;;;;;;;1.20;1.10;;;22.30;57.40;;;;;;5053697;28;20549;-61
2024/01/06 00:57:55;;;;;;;1.43;1.33;;;22.30;57.40;;;;;;5065138;28;20446;-61
2024/01/06 01:00:23;;;;;;;0.87;0.87;;;22.30;57.40;;;;;;5058691;28;20487;-61
2024/01/06 01:02:51;;;;;;;1.20;1.10;;;22.30;57.50;;;;;;5052442;28;21075;-61
2024/01/06 01:05:21;;;;;;;0.87;0.87;;;22.20;57.40;;;;;;5045301;28;20519;-62
2024/01/06 01:07:49;;;;;;;2.00;1.37;;;22.20;57.50;;;;;;5044831;28;20492;-62
2024/01/06 01:10:18;;;;;;;1.67;1.27;;;22.20;57.50;;;;;;5051489;28;20439;-61
2024/01/06 01:12:46;;;;;;;1.00;1.00;;;22.20;57.50;;;;;;5051621;28;20445;-61
2024/01/06 01:15:14;;;;;;;1.27;1.17;;;22.20;57.50;;;;;;5048340;28;20496;-62
2024/01/06 01:17:43;;;;;;;0.97;0.93;;;22.20;57.50;;;;;;5049071;28;20452;-66
2024/01/06 01:20:12;;;;;;;1.23;1.13;;;22.20;57.50;;;;;;5049656;28;20934;-62
2024/01/06 01:22:41;;;;;;;1.03;1.03;;;22.20;57.50;;;;;;5040206;28;20438;-65
2024/01/06 01:25:12;;;;;;;1.60;1.33;;;22.20;57.50;;;;;;5041888;28;20492;-63
2024/01/06 01:27:40;;;;;;;1.30;1.20;;;22.20;57.50;;;;;;5051273;28;20459;-63
2024/01/06 01:30:09;;;;;;;1.40;1.10;;;22.20;57.50;;;;;;5051303;28;20436;-62
2024/01/06 01:32:38;;;;;;;1.40;1.30;;;22.10;57.50;;;;;;5037077;28;20451;-68
2024/01/06 01:35:07;;;;;;;1.30;1.20;;;22.10;57.60;;;;;;5031618;28;20455;-66
2024/01/06 01:37:35;;;;;;;1.00;1.00;;;22.10;57.60;;;;;;5040290;28;20538;-63
2024/01/06 01:40:07;;;;;;;1.23;1.23;;;22.10;57.60;;;;;;5060657;28;20450;-62
2024/01/06 01:42:35;;;;;;;1.10;1.00;;;22.10;57.60;;;;;;5053633;28;20440;-64
2024/01/06 01:45:04;;;;;;;1.20;1.20;;;22.10;57.60;;;;;;5050573;28;20468;-63
2024/01/06 01:47:32;;;;;;;1.60;1.17;;;22.10;57.60;;;;;;5057441;28;20449;-68
2024/01/06 01:50:01;;;;;;;0.90;0.90;;;22.10;57.60;;;;;;5037156;28;20465;-64
2024/01/06 01:52:30;;;;;;;1.17;1.17;;;22.10;57.60;;;;;;5048420;28;20517;-63
2024/01/06 01:54:58;;;;;;;0.73;0.73;;;22.10;57.60;;;;;;5050845;28;20473;-64
2024/01/06 01:57:29;;;;;;;1.13;1.13;;;22.10;57.60;;;;;;5058654;28;20459;-63
2024/01/06 01:59:58;;;;;;;1.20;1.20;;;22.00;57.60;;;;;;5062693;28;20484;-63
2024/01/06 02:02:27;;;;;;;1.23;1.17;;;22.00;57.60;;;;;;5065561;28;20453;-63
2024/01/06 02:04:57;;;;;;;0.90;0.90;;;22.00;57.60;;;;;;5065321;28;20431;-62
2024/01/06 02:07:25;;;;;;;1.40;1.30;;;22.00;57.60;;;;;;5054525;28;20573;-62
2024/01/06 02:09:53;;;;;;;1.23;1.13;;;22.00;57.60;;;;;;5070578;28;20447;-62
2024/01/06 02:12:21;;;;;;;1.13;1.03;;;22.00;57.60;;;;;;5055434;28;20505;-63
2024/01/06 02:14:51;;;;;;;0.97;0.97;;;22.00;57.60;;;;;;5063603;28;20995;-63
2024/01/06 02:17:19;;;;;;;1.40;1.30;;;22.00;57.60;;;;;;5067733;28;20464;-65
2024/01/06 02:19:48;;;;;;;0.90;0.90;;;22.00;57.60;;;;;;5073291;28;20968;-62
2024/01/06 02:22:18;;;;;;;1.30;1.20;;;22.00;57.70;;;;;;5053827;28;20464;-62
2024/01/06 02:24:46;;;;;;;0.77;0.77;;;22.00;57.70;;;;;;5054065;28;20490;-61
2024/01/06 02:27:15;;;;;;;1.30;1.10;;;22.00;57.70;;;;;;5053929;28;20430;-62
2024/01/06 02:29:43;;;;;;;1.30;1.20;;;22.00;57.70;;;;;;5054701;28;20419;-65
2024/01/06 02:32:12;;;;;;;1.13;1.03;;;21.90;57.70;;;;;;5053849;28;20475;-61
2024/01/06 02:34:40;;;;;;;1.07;1.07;;;21.90;57.70;;;;;;5051133;28;20465;-62
2024/01/06 02:37:08;;;;;;;1.30;1.20;;;21.90;57.70;;;;;;5055081;28;20576;-62
2024/01/06 02:39:38;;;;;;;1.10;1.10;;;21.90;57.70;;;;;;5055621;28;20458;-62
2024/01/06 02:42:07;;;;;;;0.83;0.83;;;21.90;57.70;;;;;;5052639;28;20444;-62
2024/01/06 02:44:35;;;;;;;1.17;1.17;;;21.90;57.70;;;;;;5053920;28;20453;-63
2024/01/06 02:47:03;;;;;;;1.07;0.90;;;21.90;57.70;;;;;;5053897;28;20418;-62
2024/01/06 02:49:32;;;;;;;1.00;1.00;;;21.80;57.70;;;;;;5052687;28;20481;-62
2024/01/06 02:52:00;;;;;;;1.00;1.00;;;21.80;57.70;;;;;;5049928;28;20531;-62
2024/01/06 02:54:28;;;;;;;0.93;0.93;;;21.80;57.70;;;;;;5052207;28;20823;-62
2024/01/06 02:56:58;;;;;;;0.90;0.90;;;21.80;57.70;;;;;;5050211;28;20575;-61
2024/01/06 02:59:26;;;;;;;1.20;1.10;;;21.80;57.70;;;;;;5049315;28;20456;-61
2024/01/06 03:01:54;;;;;;;1.30;1.20;;;21.80;57.70;;;;;;5056421;28;20944;-61
2024/01/06 03:04:22;;;;;;;1.10;1.10;;;21.80;57.70;;;;;;5049053;28;20518;-62
2024/01/06 03:06:53;;;;;;;1.10;1.00;;;21.80;57.70;;;;;;5050379;28;20482;-62
2024/01/06 03:09:22;;;;;;;1.00;1.00;;;21.80;57.80;;;;;;5052973;28;20425;-62
2024/01/06 03:11:50;;;;;;;1.43;0.90;;;21.80;57.80;;;;;;5046842;28;21025;-64
2024/01/06 03:14:20;;;;;;;0.90;0.90;;;21.80;57.70;;;;;;5053003;28;21008;-61
2024/01/06 03:16:48;;;;;;;1.13;1.00;;;21.80;57.70;;;;;;5053307;28;20540;-62
2024/01/06 03:19:16;;;;;;;1.17;1.13;;;21.80;57.80;;;;;;5052518;28;20423;-62
2024/01/06 03:21:44;;;;;;;1.10;1.00;;;21.80;57.80;;;;;;5047969;28;20535;-62
2024/01/06 03:24:13;;;;;;;1.00;1.00;;;21.70;57.80;;;;;;5042849;28;20463;-61
2024/01/06 03:26:42;;;;;;;0.70;0.70;;;21.70;57.80;;;;;;5060093;28;20540;-63
2024/01/06 03:29:10;;;;;;;0.90;0.90;;;21.70;57.80;;;;;;5059437;28;20462;-65
2024/01/06 03:31:43;;;;;;;1.20;1.10;;;21.70;57.80;;;;;;5053318;28;20430;-61
2024/01/06 03:34:12;;;;;;;1.17;1.03;;;21.70;57.80;;;;;;5052096;28;20438;-61
2024/01/06 03:36:41;;;;;;;1.20;1.10;;;21.70;57.80;;;;;;5047029;28;20475;-64
2024/01/06 03:39:10;;;;;;;1.00;1.00;;;21.70;57.80;;;;;;5052748;28;20858;-61
2024/01/06 03:41:38;;;;;;;1.50;1.30;;;21.70;57.80;;;;;;5050676;28;20493;-61
2024/01/06 03:44:06;;;;;;;1.10;1.10;;;21.70;57.80;;;;;;5051994;28;20448;-62
2024/01/06 03:46:35;;;;;;;1.20;1.20;;;21.70;57.80;;;;;;5053169;28;20441;-61
2024/01/06 03:49:06;;;;;;;1.27;1.17;;;21.70;57.80;;;;;;5051806;28;20443;-62
2024/01/06 03:51:35;;;;;;;1.20;1.10;;;21.70;57.90;;;;;;5033049;28;20481;-65
2024/01/06 03:54:03;;;;;;;1.43;1.33;;;21.70;57.90;;;;;;5052817;28;20534;-61
2024/01/06 03:56:31;;;;;;;0.87;0.87;;;21.70;57.90;;;;;;5051138;28;20558;-64
2024/01/06 03:58:59;;;;;;;0.90;0.90;;;21.70;57.80;;;;;;5050445;28;20456;-64
2024/01/06 04:01:28;;;;;;;0.87;0.87;;;21.60;57.90;;;;;;5052990;28;20448;-62
2024/01/06 04:03:56;;;;;;;0.87;0.87;;;21.60;57.90;;;;;;5042564;28;20467;-61
2024/01/06 04:06:26;;;;;;;0.97;0.97;;;21.60;57.90;;;;;;5052006;28;21275;-61
2024/01/06 04:08:54;;;;;;;1.33;0.97;;;21.60;57.90;;;;;;5032445;28;20459;-62
2024/01/06 04:11:23;;;;;;;1.00;1.00;;;21.60;57.90;;;;;;5032390;28;20716;-61
2024/01/06 04:13:51;;;;;;;0.80;0.80;;;21.60;57.90;;;;;;5045208;28;20504;-64
2024/01/06 04:16:20;;;;;;;0.90;0.90;;;21.60;57.90;;;;;;5056932;28;20477;-61
2024/01/06 04:18:48;;;;;;;0.90;0.90;;;21.60;57.90;;;;;;5061086;28;20444;-62
2024/01/06 04:21:17;;;;;;;1.03;1.03;;;21.60;57.90;;;;;;5058582;28;20456;-61
2024/01/06 04:23:46;;;;;;;1.00;1.00;;;21.60;57.90;;;;;;5059550;28;20449;-64
2024/01/06 04:26:15;;;;;;;1.20;1.10;;;21.60;57.90;;;;;;5071843;28;20413;-64
2024/01/06 04:28:43;;;;;;;1.00;0.90;;;21.60;57.90;;;;;;5072255;28;20436;-61
2024/01/06 04:31:11;;;;;;;0.87;0.87;;;21.60;57.90;;;;;;5072039;28;20493;-62
2024/01/06 04:33:40;;;;;;;0.90;0.90;;;21.60;57.90;;;;;;5047929;28;20526;-61
2024/01/06 04:36:09;;;;;;;1.03;1.03;;;21.60;57.90;;;;;;5036108;28;20963;-61
2024/01/06 04:38:37;;;;;;;1.10;1.00;;;21.60;57.90;;;;;;5050092;28;20579;-62
2024/01/06 04:41:06;;;;;;;1.30;1.20;;;21.60;57.90;;;;;;5047543;28;20457;-62
2024/01/06 04:43:34;;;;;;;0.90;0.90;;;21.50;57.90;;;;;;5051713;28;20442;-61
2024/01/06 04:46:03;;;;;;;1.17;1.10;;;21.50;57.90;;;;;;5051799;28;20434;-62
2024/01/06 04:48:31;;;;;;;0.90;0.90;;;21.50;57.90;;;;;;5038471;28;20503;-62
2024/01/06 04:50:59;;;;;;;1.10;1.00;;;21.50;57.90;;;;;;5031791;28;20446;-61
2024/01/06 04:53:27;;;;;;;1.03;0.87;;;21.50;57.90;;;;;;5042180;28;20454;-61
2024/01/06 04:55:56;;;;;;;1.20;1.00;;;21.50;57.90;;;;;;5051505;28;20469;-61
2024/01/06 04:58:25;;;;;;;1.10;1.00;;;21.50;57.90;;;;;;5051656;28;20466;-61
2024/01/06 05:00:53;;;;;;;0.80;0.80;;;21.50;57.90;;;;;;5051525;28;20842;-61
2024/01/06 05:03:22;;;;;;;0.90;0.90;;;21.50;57.90;;;;;;5038512;28;20462;-61
2024/01/06 05:05:50;;;;;;;0.90;0.90;;;21.50;58.00;;;;;;5051834;28;20465;-64
2024/01/06 05:08:19;;;;;;;1.23;1.13;;;21.50;58.00;;;;;;5055874;28;20508;-61
2024/01/06 05:10:47;;;;;;;0.80;0.80;;;21.60;58.00;;;;;;5065480;28;20449;-61
2024/01/06 05:13:17;;;;;;;0.90;0.90;;;21.60;58.00;;;;;;5046954;28;20454;-62
2024/01/06 05:15:47;;;;;;;0.90;0.90;;;21.60;58.00;;;;;;5044047;28;20481;-64
2024/01/06 05:18:15;;;;;;;0.80;0.80;;;21.70;57.90;;;;;;5050949;28;20548;-62
2024/01/06 05:20:43;;;;;;;0.67;0.67;;;21.70;57.80;;;;;;5046346;28;20469;-61
2024/01/06 05:23:12;;;;;;;1.67;0.90;;;21.80;57.80;;;;;;5046983;28;20925;-61
2024/01/06 05:25:40;;;;;;;1.00;1.00;;;21.90;57.80;;;;;;5054993;28;21000;-64
2024/01/06 05:28:08;;;;;;;1.10;1.00;;;21.90;57.70;;;;;;5055530;28;20442;-61
2024/01/06 05:30:36;;;;;;;0.93;0.93;;;22.00;57.70;;;;;;5053274;28;20451;-61
2024/01/06 05:33:06;;;;;;;1.13;1.10;;;22.10;57.60;;;;;;5054371;28;20913;-63
2024/01/06 05:35:37;;;;;;;1.13;0.80;;;22.10;57.60;;;;;;5054513;28;20798;-61
2024/01/06 05:38:05;;;;;;;1.03;1.03;;;22.20;57.50;;;;;;5054845;28;20466;-62
2024/01/06 05:40:33;;;;;;;1.20;1.17;;;22.30;57.50;;;;;;5050892;28;20458;-61
2024/01/06 05:43:01;;;;;;;0.83;0.83;;;22.30;57.40;;;;;;5054799;28;20449;-63
2024/01/06 05:45:30;;;;;;;0.80;0.80;;;22.40;57.40;;;;;;5052836;28;20532;-61
2024/01/06 05:47:58;;;;;;;0.70;0.70;;;22.50;57.30;;;;;;5051128;28;21228;-61
2024/01/06 05:50:28;;;;;;;0.77;0.77;;;22.60;57.20;;;;;;5048750;28;20457;-65
2024/01/06 05:52:56;;;;;;;1.40;1.30;;;22.70;57.00;;;;;;5034710;28;20423;-62
2024/01/06 05:55:24;;;;;;;0.80;0.80;;;22.70;56.90;;;;;;5051468;28;20459;-62
2024/01/06 05:57:53;;;;;;;1.00;1.00;;;22.70;56.80;;;;;;5063873;28;20467;-62
2024/01/06 06:00:21;;;;;;;1.00;1.00;;;22.70;56.70;;;;;;5049433;28;20447;-64
2024/01/06 06:02:49;;;;;;;1.10;1.10;;;22.80;56.60;;;;;;5044046;28;20451;-62
2024/01/06 06:05:18;;;;;;;0.83;0.83;;;22.80;56.60;;;;;;5047810;28;20471;-61
2024/01/06 06:07:47;;;;;;;0.97;0.97;;;22.80;56.60;;;;;;5050919;28;20590;-65
2024/01/06 06:10:18;;;;;;;1.33;1.23;;;22.70;56.60;;;;;;5046776;28;20518;-61
2024/01/06 06:12:46;;;;;;;1.13;1.03;;;22.70;56.60;;;;;;5050513;28;20466;-62
2024/01/06 06:15:15;;;;;;;1.37;0.80;;;22.60;56.60;;;;;;5039999;28;20449;-61
2024/01/06 06:17:43;;;;;;;0.80;0.80;;;22.60;56.70;;;;;;5049550;28;20467;-61
2024/01/06 06:20:12;;;;;;;0.60;0.60;;;22.50;56.80;;;;;;5042107;28;20441;-62
2024/01/06 06:22:40;;;;;;;0.70;0.70;;;22.50;56.90;;;;;;5053839;28;20462;-67
2024/01/06 06:25:10;;;;;;;0.80;0.80;;;22.50;56.90;;;;;;5046491;28;20456;-61
2024/01/06 06:27:39;;;;;;;0.90;0.90;;;22.40;56.90;;;;;;5047996;28;20464;-66
2024/01/06 06:30:09;;;;;;;1.10;0.83;;;22.40;57.00;;;;;;5045817;28;20462;-61
2024/01/06 06:32:37;;;;;;;0.73;0.73;;;22.40;57.00;;;;;;5051357;28;20713;-66
2024/01/06 06:35:07;;;;;;;0.70;0.70;;;22.30;57.10;;;;;;5053296;28;20863;-64
2024/01/06 06:37:35;;;;;;;1.30;1.20;;;22.30;57.10;;;;;;5058073;28;20468;-62
2024/01/06 06:40:03;;;;;;;0.70;0.70;;;22.30;57.20;;;;;;5051633;28;20463;-61
2024/01/06 06:42:33;;;;;;;0.70;0.70;;;22.20;57.20;;;;;;5057486;28;20450;-64
2024/01/06 06:45:01;;;;;;;1.17;1.10;;;22.20;57.30;;;;;;5060261;28;20515;-67
2024/01/06 06:47:29;;;;;;;1.10;1.03;;;22.20;57.30;;;;;;5053262;28;20481;-68
2024/01/06 06:49:58;;;;;;;1.13;1.13;;;22.20;57.40;;;;;;5042113;28;20540;-61
2024/01/06 06:52:26;;;;;;;1.33;1.10;;;22.20;57.40;;;;;;5064286;28;20442;-61
2024/01/06 06:54:54;;;;;;;0.60;0.60;;;22.20;57.40;;;;;;5060599;28;20502;-61
2024/01/06 06:57:23;;;;;;;5.70;0.80;;;22.20;57.40;;;;;;5058126;28;20538;-62
2024/01/06 06:59:53;;;;;;;0.80;0.80;;;22.20;57.40;;;;;;5061544;28;20470;-66
2024/01/06 07:02:21;;;;;;;2.97;1.33;;;22.30;57.40;;;;;;5058479;28;20496;-65
2024/01/06 07:04:49;;;;;;;4.47;2.50;;;22.30;57.40;;;;;;5063421;28;20469;-66
2024/01/06 07:07:17;;;;;;;6.93;2.20;;;22.20;57.50;;;;;;5051941;28;20494;-70
2024/01/06 07:09:46;;;;;;;7.87;2.90;;;22.20;57.70;;;;;;5046886;28;20549;-69
2024/01/06 07:12:14;;;;;;;6.13;2.37;;;22.20;57.80;;;;;;5051390;28;20464;-64
2024/01/06 07:14:43;;;;;;;9.53;3.00;;;22.20;57.80;;;;;;5051298;28;20454;-64
2024/01/06 07:17:12;;;;;;;5.73;2.90;;;22.20;57.90;;;;;;5036504;28;20439;-66
2024/01/06 07:19:40;;;;;;;6.57;2.63;;;22.20;57.90;;;;;;5042586;28;20463;-65
2024/01/06 07:22:09;;;;;;;5.13;2.33;;;22.10;57.90;;;;;;5052407;28;21312;-64
2024/01/06 07:24:37;;;;;;;5.20;2.57;;;22.10;57.90;;;;;;5052034;28;20935;-67
2024/01/06 07:27:05;;;;;;;11.23;3.80;;;22.10;57.90;;;;;;5052283;28;20523;-65
2024/01/06 07:29:33;;;;;;;3.00;1.90;;;22.10;57.90;;;;;;5051912;28;20492;-66
2024/01/06 07:32:01;;;;;;;5.47;2.70;;;22.10;57.80;;;;;;5043274;28;20447;-64
2024/01/06 07:34:31;;;;;;;4.17;2.10;;;22.10;57.80;;;;;;5039860;28;20438;-66
2024/01/06 07:36:59;;;;;;;6.37;2.57;;;22.10;57.80;;;;;;5049060;28;20446;-65
2024/01/06 07:39:28;;;;;;;4.67;2.60;;;22.10;57.80;;;;;;5049173;28;20857;-64
2024/01/06 07:41:56;;;;;;;5.83;2.47;;;22.10;57.80;;;;;;5049438;28;20462;-65
2024/01/06 07:44:25;;;;;;;3.00;1.50;;;22.10;57.80;;;;;;5050261;28;20443;-65
2024/01/06 07:46:54;;;;;;;2.73;2.23;;;22.00;57.80;;;;;;5049704;28;20473;-64
2024/01/06 07:49:22;;;;;;;2.50;2.10;;;22.00;57.80;;;;;;5049558;28;20919;-68
2024/01/06 07:51:52;;;;;;;3.83;2.10;;;22.00;57.80;;;;;;5052623;28;20810;-66
2024/01/06 07:54:20;;;;;;;4.10;1.73;;;22.00;57.90;;;;;;5048383;28;20442;-64
2024/01/06 07:56:48;;;;;;;3.87;2.17;;;22.00;57.90;;;;;;5035417;28;20946;-64
2024/01/06 07:59:16;;;;;;;3.50;2.00;;;22.00;57.90;;;;;;5044014;28;20478;-65
2024/01/06 08:01:44;;;;;;;3.60;2.33;;;21.90;58.00;;;;;;5034124;28;20446;-65
2024/01/06 08:04:13;;;;;;;6.50;2.00;;;21.90;58.00;;;;;;5051193;28;20499;-65
2024/01/06 08:06:41;;;;;;;6.77;2.00;;;21.90;58.00;;;;;;5044783;28;20940;-65
2024/01/06 08:09:11;;;;;;;2.90;1.70;;;21.90;58.00;;;;;;5052182;28;21006;-64
2024/01/06 08:11:39;;;;;;;2.80;1.80;;;21.90;58.00;;;;;;5050089;28;20450;-64
2024/01/06 08:14:07;;;;;;;2.60;1.70;;;22.00;58.00;;;;;;5060189;28;20435;-64
2024/01/06 08:16:36;;;;;;;2.93;1.77;;;21.90;58.00;;;;;;5065413;28;20512;-67
2024/01/06 08:19:04;;;;;;;1.80;1.40;;;22.00;58.00;;;;;;5046253;28;20515;-64
2024/01/06 08:21:34;;;;;;;2.57;1.23;;;21.90;58.00;;;;;;5047035;28;20512;-65
2024/01/06 08:24:03;;;;;;;1.80;1.27;;;22.00;58.00;;;;;;5048172;28;20450;-67
2024/01/06 08:26:33;;;;;;;3.33;1.83;;;22.00;58.00;;;;;;5051096;28;20454;-65
2024/01/06 08:29:01;;;;;;;2.83;1.50;;;22.00;58.00;;;;;;5049665;28;20453;-66
2024/01/06 08:31:29;;;;;;;1.77;1.20;;;22.00;58.00;;;;;;5050446;28;20451;-64
2024/01/06 08:33:58;;;;;;;2.00;1.37;;;22.00;58.00;;;;;;5048827;28;20473;-64
2024/01/06 08:36:27;;;;;;;2.83;1.77;;;22.00;58.00;;;;;;5049281;28;20940;-68
2024/01/06 08:38:55;;;;;;;2.20;1.40;;;22.00;58.00;;;;;;5051124;28;20583;-64
2024/01/06 08:41:23;;;;;;;1.50;1.40;;;22.00;58.00;;;;;;5050425;28;20501;-65
2024/01/06 08:43:53;;;;;;;2.20;1.30;;;22.00;58.00;;;;;;5044643;28;20958;-64
2024/01/06 08:46:22;;;;;;;1.30;1.20;;;22.00;57.90;;;;;;5047888;28;20448;-67
2024/01/06 08:48:50;;;;;;;1.80;1.10;;;22.10;57.90;;;;;;5051615;28;20457;-65
2024/01/06 08:51:20;;;;;;;1.70;1.30;;;22.10;57.80;;;;;;5049761;28;20988;-67
2024/01/06 08:53:48;;;;;;;2.73;1.57;;;22.10;57.80;;;;;;5047236;28;20800;-65
2024/01/06 08:56:17;;;;;;;2.17;1.30;;;22.10;57.70;;;;;;5047092;28;20504;-65
2024/01/06 08:58:46;;;;;;;2.80;1.30;;;22.10;57.70;;;;;;5050507;28;20460;-65
2024/01/06 09:01:16;;;;;;;2.30;1.40;;;22.10;57.70;;;;;;5049549;28;20450;-66
2024/01/06 09:03:44;;;;;;;1.90;1.27;;;22.10;57.70;;;;;;5047861;28;20452;-66
2024/01/06 09:06:13;;;;;;;1.20;1.10;;;22.00;57.70;;;;;;5047057;28;20503;-67
2024/01/06 09:08:43;;;;;;;1.00;0.90;;;22.00;57.70;;;;;;5050427;28;20918;-66
2024/01/06 09:11:11;;;;;;;2.13;1.40;;;22.00;57.70;;;;;;5050679;28;20491;-66
2024/01/06 09:13:40;;;;;;;2.10;1.17;;;22.00;57.80;;;;;;5059205;28;20477;-66
2024/01/06 09:16:08;;;;;;;1.83;1.50;;;22.00;57.80;;;;;;5058387;28;20453;-66
2024/01/06 09:18:38;;;;;;;1.50;1.40;;;22.00;57.80;;;;;;5060558;28;20489;-67
2024/01/06 09:21:07;;;;;;;2.27;1.17;;;22.00;57.90;;;;;;5058090;28;20470;-66
2024/01/06 09:23:35;;;;;;;1.30;1.07;;;22.00;57.90;;;;;;5056382;28;20466;-67
2024/01/06 09:26:03;;;;;;;0.93;0.93;;;22.00;57.90;;;;;;5058141;28;20925;-69
2024/01/06 09:28:31;;;;;;;1.73;1.00;;;22.00;58.00;;;;;;5053643;28;20485;-66
2024/01/06 09:31:00;;;;;;;1.83;1.07;;;22.00;58.00;;;;;;5059409;28;20506;-66
2024/01/06 09:33:28;;;;;;;1.63;1.30;;;22.00;58.00;;;;;;5051328;28;20452;-65
2024/01/06 09:35:58;;;;;;;2.73;1.60;;;22.00;58.00;;;;;;5057514;28;20438;-66
2024/01/06 09:38:26;;;;;;;1.33;1.10;;;22.00;58.10;;;;;;5060378;28;20456;-68
2024/01/06 09:40:54;;;;;;;3.23;1.27;;;22.00;58.10;;;;;;5055242;28;20473;-66
2024/01/06 09:43:23;;;;;;;1.10;1.10;;;22.00;58.10;;;;;;5056907;28;20560;-66
2024/01/06 09:45:59;;;;;;;1.70;1.60;;;22.00;58.10;;;;;;5054920;28;20979;-66
2024/01/06 09:48:30;;;;;;;2.23;1.30;;;22.00;58.20;;;;;;5059169;28;20449;-66
2024/01/06 09:51:03;;;;;;;1.10;1.00;;;22.00;58.20;;;;;;5056626;28;20830;-66
2024/01/06 09:53:36;;;;;;;1.83;1.73;;;22.00;58.20;;;;;;5051828;28;20438;-66
2024/01/06 09:56:05;;;;;;;1.30;1.20;;;22.00;58.20;;;;;;5061566;28;20795;-66
2024/01/06 09:58:36;;;;;;;1.50;1.40;;;22.00;58.20;;;;;;5054086;28;20446;-66
2024/01/06 10:01:06;;;;;;;2.30;1.67;;;22.00;58.20;;;;;;5058068;28;20535;-72
2024/01/06 10:03:35;;;;;;;2.30;1.40;;;22.00;58.20;;;;;;5044276;28;20443;-66
2024/01/06 10:06:05;;;;;;;1.17;0.97;;;22.00;58.30;;;;;;5049980;28;20790;-67
2024/01/06 10:08:34;;;;;;;1.33;1.23;;;22.10;58.30;;;;;;5055518;28;20536;-67
2024/01/06 10:11:03;;;;;;;1.70;1.30;;;22.10;58.20;;;;;;5052838;28;20864;-67
2024/01/06 10:13:31;;;;;;;1.10;1.00;;;22.10;58.20;;;;;;5051922;28;20800;-69
2024/01/06 10:16:00;;;;;;;3.10;1.50;;;22.10;58.20;;;;;;5044056;28;20845;-69
2024/01/06 10:18:29;;;;;;;2.73;1.37;;;22.10;58.10;;;;;;5053513;28;20520;-66
2024/01/06 10:20:58;;;;;;;1.90;1.13;;;22.10;58.10;;;;;;5042978;28;21011;-66
2024/01/06 10:23:29;;;;;;;0.90;0.90;;;22.10;58.10;;;;;;5033358;28;20443;-66
2024/01/06 10:25:57;;;;;;;3.20;1.37;;;22.10;58.10;;;;;;5033133;28;20509;-65
2024/01/06 10:28:29;;;;;;;1.47;1.37;;;22.10;58.10;;;;;;5044502;28;20434;-65
2024/01/06 10:30:59;;;;;;;1.80;1.57;;;22.10;58.10;;;;;;5052887;28;20467;-65
2024/01/06 10:33:28;;;;;;;2.10;1.70;;;22.00;58.10;;;;;;5043507;28;20440;-66
2024/01/06 10:35:56;;;;;;;1.90;1.37;;;22.00;58.10;;;;;;5064682;28;20450;-66
2024/01/06 10:38:27;;;;;;;1.60;1.50;;;22.00;58.10;;;;;;5043318;28;20469;-66
2024/01/06 10:41:00;;;;;;;1.00;0.90;;;22.00;58.10;;;;;;5053461;28;20519;-66
2024/01/06 10:43:29;;;;;;;1.20;1.10;;;22.00;58.10;;;;;;5053659;28;20447;-66
2024/01/06 10:45:59;;;;;;;3.80;1.53;;;22.00;58.20;;;;;;5051490;28;20484;-66
2024/01/06 10:48:30;;;;;;;2.13;1.13;;;22.00;58.20;;;;;;5046245;28;20509;-66
2024/01/06 10:50:59;;;;;;;1.93;1.57;;;22.00;58.20;;;;;;5048397;28;20489;-66
2024/01/06 10:53:28;;;;;;;1.33;1.23;;;22.00;58.20;;;;;;5053378;28;20432;-66
2024/01/06 10:55:58;;;;;;;1.73;1.13;;;22.00;58.20;;;;;;5053721;28;20892;-66
2024/01/06 10:58:29;;;;;;;3.93;3.00;;;22.00;58.30;;;;;;5050308;28;20429;-66
2024/01/06 11:00:57;;;;;;;2.00;1.20;;;21.90;58.30;;;;;;5046643;28;20470;-66
2024/01/06 11:03:28;;;;;;;1.40;1.30;;;22.00;58.30;;;;;;5044751;28;20460;-66
2024/01/06 11:05:57;;;;;;;1.67;1.30;;;22.00;58.30;;;;;;5043436;28;20446;-66
2024/01/06 11:08:27;;;;;;;0.90;0.80;;;22.00;58.30;;;;;;5047465;28;20476;-66
2024/01/06 11:10:56;;;;;;;1.70;1.60;;;22.00;58.30;;;;;;5050279;28;20455;-66
2024/01/06 11:13:26;;;;;;;1.37;0.97;;;22.00;58.30;;;;;;5052774;28;20801;-66
2024/01/06 11:15:55;;;;;;;1.43;1.10;;;22.00;58.30;;;;;;5051430;28;20462;-66
2024/01/06 11:18:35;;;;;;;2.10;1.17;;;22.00;58.30;;;;;;5056054;28;20507;-70
2024/01/06 11:21:24;;;;;;;1.50;1.40;;;22.00;58.20;;;;;;5080380;28;20479;-67
2024/01/06 11:24:20;;;;;;;1.07;1.07;;;22.00;58.30;;;;;;5053155;28;20431;-66
2024/01/06 11:26:53;;;;;;;1.70;1.60;;;22.00;58.30;;;;;;5053153;28;20449;-66
2024/01/06 11:29:21;;;;;;;1.77;1.47;;;22.00;58.30;;;;;;5049404;28;20441;-66
2024/01/06 11:32:36;;;;;;;1.53;1.10;;;22.00;58.30;;;;;;5052346;28;20449;-68
2024/01/06 11:35:09;;;;;;;1.20;1.00;;;22.00;58.30;;;;;;5047822;28;20522;-67
2024/01/06 11:37:52;;;;;;;1.30;1.10;;;22.00;58.20;;;;;;5050743;28;20452;-66
2024/01/06 11:40:26;;;;;;;1.40;1.10;;;22.00;58.20;;;;;;5051814;28;20496;-66
2024/01/06 11:43:06;;;;;;;1.43;1.33;;;22.00;58.10;;;;;;5052984;28;20443;-67
2024/01/06 11:45:35;;;;;;;1.07;1.07;;;22.10;58.10;;;;;;5036463;28;20435;-70
2024/01/06 11:48:05;;;;;;;1.17;0.90;;;22.10;58.10;;;;;;5051557;28;20942;-67
2024/01/06 11:50:36;;;;;;;0.97;0.90;;;22.10;58.00;;;;;;5052836;28;20575;-68
2024/01/06 11:53:05;;;;;;;2.40;1.17;;;22.10;58.00;;;;;;5050622;28;20517;-70
2024/01/06 11:55:34;;;;;;;0.70;0.70;;;22.10;58.00;;;;;;5051807;28;20447;-69
2024/01/06 11:58:05;;;;;;;1.83;1.13;;;22.10;58.00;;;;;;5052439;28;20521;-66
2024/01/06 12:00:36;;;;;;;1.10;1.00;;;22.00;58.00;;;;;;5049544;28;20990;-66
2024/01/06 12:03:05;;;;;;;1.30;1.20;;;22.00;58.00;;;;;;5051333;28;20445;-66
2024/01/06 12:05:35;;;;;;;1.30;1.20;;;22.00;58.00;;;;;;5051099;28;20461;-66
2024/01/06 12:08:06;;;;;;;1.60;1.13;;;22.00;58.00;;;;;;5038357;28;20482;-65
2024/01/06 12:10:36;;;;;;;1.67;1.40;;;22.00;58.10;;;;;;5043173;28;20446;-66
2024/01/06 12:13:08;;;;;;;2.30;1.07;;;22.00;58.10;;;;;;5031914;28;20437;-71
2024/01/06 12:15:39;;;;;;;1.47;1.20;;;22.00;58.10;;;;;;5032633;28;20519;-65
2024/01/06 12:18:08;;;;;;;1.20;1.10;;;22.00;58.20;;;;;;5075233;28;20798;-67
2024/01/06 12:20:38;;;;;;;1.23;1.13;;;22.00;58.20;;;;;;5051166;28;20925;-66
2024/01/06 12:23:06;;;;;;;1.40;1.30;;;22.00;58.20;;;;;;5071888;28;20442;-66
2024/01/06 12:25:36;;;;;;;1.13;1.03;;;22.00;58.20;;;;;;5072689;28;20627;-69
2024/01/06 12:28:08;;;;;;;1.13;0.90;;;22.00;58.20;;;;;;5065837;28;20487;-66
2024/01/06 12:30:39;;;;;;;2.30;1.30;;;22.00;58.20;;;;;;5051770;28;20431;-67
2024/01/06 12:33:10;;;;;;;0.90;0.90;;;22.00;58.20;;;;;;5049437;28;20906;-66
2024/01/06 12:35:40;;;;;;;1.30;1.20;;;22.00;58.20;;;;;;5048716;28;20888;-66
2024/01/06 12:38:09;;;;;;;1.10;1.00;;;22.00;58.20;;;;;;5050946;28;20433;-66
2024/01/06 12:40:38;;;;;;;1.10;1.00;;;22.00;58.20;;;;;;5051856;28;20454;-66
2024/01/06 12:43:07;;;;;;;0.87;0.87;;;22.00;58.20;;;;;;5051975;28;20480;-66
2024/01/06 12:45:35;;;;;;;1.70;1.20;;;22.00;58.10;;;;;;5052002;28;20859;-68
2024/01/06 12:48:04;;;;;;;1.23;1.17;;;22.00;58.10;;;;;;5042137;28;20453;-66
2024/01/06 12:50:32;;;;;;;1.30;1.20;;;22.10;58.10;;;;;;5051051;28;20846;-66
2024/01/06 12:53:02;;;;;;;0.80;0.80;;;22.10;58.10;;;;;;5048531;28;20467;-66
2024/01/06 12:55:30;;;;;;;0.90;0.90;;;22.10;58.10;;;;;;5051639;28;20454;-67
2024/01/06 12:58:01;;;;;;;1.07;1.00;;;22.00;58.10;;;;;;5051220;28;20441;-66